Ali Cat — MZCL8 — position and weather

sailwx.info

Track history (hours):
 
Tides and Currents Weather Stations Pressure Air Temp Water Temp Dewpoint Dewpoint Depression Visibility Wind Speed Wind Dir Waves Ship Positions

Ali Cat

Operator: MRCC Clyde

Last reported at 2019-Feb-23 21:57 UTC. Time now 2019-Feb-23 23:25 UTC.
Position N 55°58' W 004°50'.

Length 19 m.

Type: Passenger vessel. MMSI: 235056506.

Date/timePositionNaut miles runAvg speedWind from/ knotsBaromVisibWave heightAir tempDewpointWater temp
2019-Feb-23 21:57N 55°58' W 004°50'1 1.9
2019-Feb-23 21:23N 55°58' W 004°52'2 2.5
2019-Feb-23 20:40N 55°58' W 004°49'210.7
2019-Feb-23 20:30N 55°57' W 004°52'1 1.0
2019-Feb-23 19:59N 55°58' W 004°51'1 2.0
2019-Feb-23 19:28N 55°57' W 004°53'2 0.8
2019-Feb-23 16:41N 55°58' W 004°49'211.3
2019-Feb-23 16:30N 55°57' W 004°53'2 0.6
2019-Feb-23 12:40N 55°58' W 004°49'211.0
2019-Feb-23 12:29N 55°57' W 004°53'1 2.4
2019-Feb-23 11:57N 55°58' W 004°51'1 3.0
2019-Feb-23 11:29N 55°57' W 004°53'2 1.8
2019-Feb-23 10:38N 55°58' W 004°50'110.8
2019-Feb-23 10:30N 55°57' W 004°52'1 1.2
2019-Feb-23 10:00N 55°58' W 004°52'1 1.4
2019-Feb-23 09:29N 55°57' W 004°53'1 0.1
2019-Feb-22 21:51N 55°57' W 004°52'2 4.8
2019-Feb-22 21:30N 55°57' W 004°55'3 1.9
2019-Feb-22 20:08N 55°58' W 004°50'110.4
2019-Feb-22 20:00N 55°57' W 004°52'1 1.2
2019-Feb-22 19:06N 55°58' W 004°51'110.1
2019-Feb-22 18:59N 55°57' W 004°53'2 1.8
2019-Feb-22 18:08N 55°58' W 004°50'110.0
2019-Feb-22 18:01N 55°57' W 004°52'1 1.4
2019-Feb-22 17:08N 55°58' W 004°50'1 9.9
2019-Feb-22 17:00N 55°57' W 004°53'1 1.5
2019-Feb-22 16:08N 55°58' W 004°50'110.3
2019-Feb-22 16:00N 55°57' W 004°53'1 2.3
2019-Feb-22 15:27N 55°58' W 004°51'1 3.0
2019-Feb-22 15:00N 55°57' W 004°53'2 1.9
2019-Feb-22 14:09N 55°58' W 004°50'210.6
2019-Feb-22 14:00N 55°57' W 004°53'2 2.2
2019-Feb-22 13:09N 55°58' W 004°49'210.9
2019-Feb-22 12:59N 55°57' W 004°53'1 0.8
2019-Feb-22 12:05N 55°58' W 004°51'110.6
2019-Feb-22 12:00N 55°57' W 004°53'2 2.2
2019-Feb-22 11:09N 55°58' W 004°50'210.7
2019-Feb-22 10:58N 55°57' W 004°53'2 3.1
2019-Feb-22 10:26N 55°58' W 004°50'1 3.4
2019-Feb-22 09:59N 55°57' W 004°53'1 1.7
2019-Feb-22 09:30N 55°58' W 004°51'1 1.5
2019-Feb-22 09:00N 55°57' W 004°53'1 1.3
2019-Feb-22 08:07N 55°58' W 004°51'110.1
2019-Feb-22 07:59N 55°57' W 004°53'1 1.6
2019-Feb-22 07:05N 55°58' W 004°50'110.2
2019-Feb-22 07:00N 55°57' W 004°52'0 0.0
2019-Feb-21 23:22N 55°58' W 004°52'0 1.0
2019-Feb-21 22:53N 55°58' W 004°53'1 2.2
2019-Feb-21 22:25N 55°58' W 004°51'2 4.2
2019-Feb-21 21:57N 55°57' W 004°54'3 3.1
2019-Feb-21 21:08N 55°58' W 004°50'211.4
2019-Feb-21 20:59N 55°57' W 004°53'1 1.5
2019-Feb-21 20:06N 55°58' W 004°50'111.0
2019-Feb-21 20:00N 55°57' W 004°52'1 2.3
2019-Feb-21 19:26N 55°58' W 004°50'1 3.2
2019-Feb-21 19:00N 55°57' W 004°53'1 1.5
2019-Feb-21 18:08N 55°58' W 004°50'2 9.9
2019-Feb-21 17:56N 55°57' W 004°54'3 3.4
2019-Feb-21 17:12N 55°58' W 004°49'210.0
2019-Feb-21 16:59N 55°57' W 004°53'1 2.7
2019-Feb-21 16:26N 55°58' W 004°51'1 3.0
2019-Feb-21 15:58N 55°57' W 004°53'1 2.2
2019-Feb-21 15:28N 55°58' W 004°51'2 3.0
2019-Feb-21 14:57N 55°57' W 004°54'2 2.2
2019-Feb-21 14:06N 55°58' W 004°51'110.7
2019-Feb-21 13:59N 55°57' W 004°53'1 2.5
2019-Feb-21 13:27N 55°58' W 004°50'1 2.8
2019-Feb-21 12:59N 55°57' W 004°53'1 2.1
2019-Feb-21 12:29N 55°58' W 004°51'1 2.2
2019-Feb-21 12:00N 55°57' W 004°53'1 1.3
2019-Feb-21 11:06N 55°58' W 004°51'110.7
2019-Feb-21 11:00N 55°57' W 004°52'1 0.8
2019-Feb-21 10:04N 55°58' W 004°51'110.8
2019-Feb-21 09:58N 55°57' W 004°53'1 1.3
2019-Feb-21 09:05N 55°58' W 004°51'110.7
2019-Feb-21 09:00N 55°57' W 004°52'2 2.5
2019-Feb-21 08:11N 55°58' W 004°49'210.3
2019-Feb-21 08:00N 55°57' W 004°52'1 2.2
2019-Feb-21 07:26N 55°58' W 004°50'1 2.1
2019-Feb-21 06:59N 55°57' W 004°52'0 0.0
2019-Feb-20 23:19N 55°57' W 004°53'1 0.8
2019-Feb-20 22:23N 55°57' W 004°51'2 4.5
2019-Feb-20 22:00N 55°57' W 004°54'3 3.7
2019-Feb-20 21:11N 55°58' W 004°49'210.9
2019-Feb-20 20:59N 55°57' W 004°53'2 2.1
2019-Feb-20 20:08N 55°58' W 004°50'110.8
2019-Feb-20 20:00N 55°57' W 004°52'1 1.0
2019-Feb-20 19:06N 55°58' W 004°51'110.4
2019-Feb-20 19:00N 55°57' W 004°52'2 2.1
2019-Feb-20 18:10N 55°58' W 004°49'210.4
2019-Feb-20 17:58N 55°57' W 004°53'1 1.8
2019-Feb-20 17:07N 55°58' W 004°51'110.1
2019-Feb-20 16:59N 55°57' W 004°53'1 1.7
2019-Feb-20 16:07N 55°58' W 004°50'210.5
2019-Feb-20 15:57N 55°57' W 004°53'2 2.1
2019-Feb-20 15:07N 55°58' W 004°51'110.4
2019-Feb-20 15:00N 55°57' W 004°53'1 0.8
2019-Feb-20 14:09N 55°58' W 004°51'211.3
2019-Feb-20 14:00N 55°57' W 004°54'2 3.5
2019-Feb-20 13:21N 55°58' W 004°50'1 1.1
2019-Feb-20 12:17N 55°57' W 004°52'2 6.1
2019-Feb-20 12:00N 55°57' W 004°55'2 1.7
2019-Feb-20 11:01N 55°57' W 004°52'011.4
2019-Feb-20 10:59N 55°57' W 004°53'1 1.8
2019-Feb-20 10:09N 55°58' W 004°51'210.8
2019-Feb-20 09:57N 55°57' W 004°54'3 4.1
2019-Feb-20 09:14N 55°58' W 004°49'311.0
2019-Feb-20 08:59N 55°57' W 004°54'2 4.3
2019-Feb-20 08:28N 55°58' W 004°50'2 4.1
2019-Feb-20 08:00N 55°57' W 004°53'1 1.0
2019-Feb-20 07:03N 55°58' W 004°52'110.7
2019-Feb-20 07:00N 55°57' W 004°53'0 0.0
2019-Feb-19 23:16N 55°57' W 004°53'0 0.3
2019-Feb-19 22:18N 55°57' W 004°53'0 0.6
2019-Feb-19 21:52N 55°58' W 004°52'1 1.2
2019-Feb-19 21:05N 55°58' W 004°51'111.0
2019-Feb-19 21:00N 55°57' W 004°52'0 0.0
2019-Feb-19 20:00N 55°57' W 004°52'2 2.2
2019-Feb-19 19:10N 55°58' W 004°49'211.0
2019-Feb-19 18:58N 55°57' W 004°53'2 2.4
2019-Feb-19 18:09N 55°58' W 004°50'210.9
2019-Feb-19 18:00N 55°57' W 004°52'1 0.8
2019-Feb-19 17:05N 55°58' W 004°51'110.6
2019-Feb-19 16:59N 55°57' W 004°53'1 1.9
2019-Feb-19 16:30N 55°58' W 004°52'1 1.1
2019-Feb-19 16:00N 55°57' W 004°52'2 1.8
2019-Feb-19 15:09N 55°58' W 004°50'210.4
2019-Feb-19 15:00N 55°57' W 004°52'2 2.0
2019-Feb-19 14:09N 55°58' W 004°49'211.3
2019-Feb-19 14:00N 55°57' W 004°53'1 1.4
2019-Feb-19 13:06N 55°58' W 004°50'111.5
2019-Feb-19 13:00N 55°57' W 004°52'0 0.2
2019-Feb-19 12:00N 55°57' W 004°52'1 1.6
2019-Feb-19 11:08N 55°58' W 004°49'111.1
2019-Feb-19 11:00N 55°57' W 004°52'1 1.7
2019-Feb-19 10:09N 55°58' W 004°49'211.3
2019-Feb-19 10:00N 55°57' W 004°52'2 2.0
2019-Feb-19 09:09N 55°58' W 004°49'211.2
2019-Feb-19 08:57N 55°57' W 004°53'2 3.3
2019-Feb-19 08:26N 55°58' W 004°50'1 3.0
2019-Feb-19 07:59N 55°57' W 004°52'2 2.2
2019-Feb-19 07:05N 55°58' W 004°49'211.3
2019-Feb-19 06:56N 55°57' W 004°52'0 0.1
2019-Feb-18 23:24N 55°57' W 004°51'2 3.7
2019-Feb-18 22:57N 55°57' W 004°54'2 4.0
2019-Feb-18 22:26N 55°58' W 004°50'3 5.8
2019-Feb-18 22:00N 55°57' W 004°55'2 2.4
2019-Feb-18 21:05N 55°58' W 004°51'110.7
2019-Feb-18 20:59N 55°57' W 004°52'0 0.5
2019-Feb-18 20:03N 55°57' W 004°52'110.1
2019-Feb-18 19:59N 55°57' W 004°53'1 1.0
2019-Feb-18 19:04N 55°57' W 004°51'111.0
2019-Feb-18 19:00N 55°57' W 004°52'1 1.5
2019-Feb-18 18:08N 55°58' W 004°50'110.5
2019-Feb-18 18:00N 55°57' W 004°52'1 1.0
2019-Feb-18 17:05N 55°58' W 004°51'110.1
2019-Feb-18 16:58N 55°57' W 004°53'1 2.8
2019-Feb-18 16:28N 55°58' W 004°51'1 2.5
2019-Feb-18 16:00N 55°57' W 004°53'2 0.2
2019-Feb-18 09:07N 55°58' W 004°50'210.4
2019-Feb-18 08:57N 55°57' W 004°53'2 2.3
2019-Feb-18 08:08N 55°58' W 004°50'211.2
2019-Feb-18 07:59N 55°57' W 004°53'2 1.7
2019-Feb-18 07:02N 55°58' W 004°50'011.5
2019-Feb-18 07:00N 55°58' W 004°51'0 0.4
2019-Feb-18 06:28N 55°58' W 004°51'1 0.0
2019-Feb-17 09:08N 55°58' W 004°49'210.9
2019-Feb-17 08:59N 55°58' W 004°52'1 0.1
2019-Feb-16 21:59N 55°58' W 004°50'0 0.2
2019-Feb-16 20:37N 55°58' W 004°50'110.4
2019-Feb-16 20:29N 55°57' W 004°53'2 1.9
2019-Feb-16 19:38N 55°58' W 004°50'110.7
2019-Feb-16 19:30N 55°57' W 004°52'1 0.2
2019-Feb-16 16:33N 55°57' W 004°52'010.8
2019-Feb-16 16:31N 55°57' W 004°52'2 1.2
2019-Feb-16 15:11N 55°58' W 004°49'210.3
2019-Feb-16 14:57N 55°57' W 004°54'1 1.7
2019-Feb-16 14:05N 55°58' W 004°51'111.2
2019-Feb-16 14:00N 55°57' W 004°53'2 1.3
2019-Feb-16 12:38N 55°58' W 004°50'211.1
2019-Feb-16 12:29N 55°57' W 004°52'1 0.6
2019-Feb-16 11:32N 55°58' W 004°52'111.2
2019-Feb-16 11:28N 55°57' W 004°53'1 1.8
2019-Feb-16 10:59N 55°58' W 004°52'1 1.3
2019-Feb-16 10:29N 55°58' W 004°53'2 2.2
2019-Feb-16 09:39N 55°58' W 004°49'210.9
2019-Feb-16 09:27N 55°57' W 004°53'1 2.9
2019-Feb-16 09:00N 55°58' W 004°51'0 0.0
2019-Feb-15 21:55N 55°58' W 004°51'1 0.6
2019-Feb-15 20:40N 55°58' W 004°50'211.1
2019-Feb-15 20:29N 55°57' W 004°53'2 2.4
2019-Feb-15 19:44N 55°58' W 004°50'311.1
2019-Feb-15 19:29N 55°57' W 004°55'2 0.7
2019-Feb-15 16:34N 55°57' W 004°51'111.1
2019-Feb-15 16:29N 55°57' W 004°53'2 2.7
2019-Feb-15 15:55N 55°58' W 004°50'0 0.2
2019-Feb-15 15:07N 55°58' W 004°50'111.1
2019-Feb-15 15:00N 55°57' W 004°52'1 1.9
2019-Feb-15 14:26N 55°58' W 004°50'2 4.4
2019-Feb-15 13:55N 55°57' W 004°54'2 1.4
2019-Feb-15 12:36N 55°57' W 004°51'110.4
2019-Feb-15 12:30N 55°57' W 004°52'1 1.3
2019-Feb-15 12:00N 55°58' W 004°52'1 1.2
2019-Feb-15 11:29N 55°57' W 004°52'1 2.3
2019-Feb-15 10:56N 55°58' W 004°50'1 3.1
2019-Feb-15 10:29N 55°57' W 004°53'2 1.7
2019-Feb-15 09:35N 55°58' W 004°50'112.1
2019-Feb-15 09:29N 55°57' W 004°52'1 0.1
2019-Feb-14 23:24N 55°58' W 004°51'2 4.1
2019-Feb-14 22:58N 55°57' W 004°54'2 1.5
2019-Feb-14 21:54N 55°57' W 004°51'1 1.2
2019-Feb-14 21:22N 55°58' W 004°52'1 0.6
2019-Feb-14 20:33N 55°57' W 004°52'010.1
2019-Feb-14 20:30N 55°57' W 004°52'2 3.2
2019-Feb-14 19:54N 55°58' W 004°49'2 4.7
2019-Feb-14 19:30N 55°57' W 004°52'1 0.3
2019-Feb-14 16:34N 55°57' W 004°51'110.3
2019-Feb-14 16:28N 55°57' W 004°53'1 0.9
2019-Feb-14 15:04N 55°57' W 004°51'110.7
2019-Feb-14 15:00N 55°57' W 004°52'1 1.7
2019-Feb-14 14:09N 55°58' W 004°50'210.9
2019-Feb-14 13:58N 55°57' W 004°53'1 2.1
2019-Feb-14 13:28N 55°58' W 004°51'0 0.5
2019-Feb-14 12:36N 55°58' W 004°50'111.4
2019-Feb-14 12:28N 55°57' W 004°53'2 2.4
2019-Feb-14 11:38N 55°58' W 004°49'211.3
2019-Feb-14 11:27N 55°57' W 004°53'2 3.1
2019-Feb-14 10:56N 55°58' W 004°50'1 2.8
2019-Feb-14 10:30N 55°57' W 004°52'1 1.1
2019-Feb-14 09:35N 55°58' W 004°51'110.9
2019-Feb-14 09:30N 55°57' W 004°52'  
Track history (hours):
 
Tides and Currents Weather Stations Pressure Air Temp Water Temp Dewpoint Dewpoint Depression Visibility Wind Speed Wind Dir Waves Ship Positions

Ali Cat

Operator: MRCC Clyde

Last reported at 2019-Feb-23 21:57 UTC. Time now 2019-Feb-23 23:25 UTC.
Position N 55°58' W 004°50'.

Length 19 m.

Type: Passenger vessel. MMSI: 235056506.

Date/timePositionNaut miles runAvg speedWind from/ knotsBaromVisibWave heightAir tempDewpointWater temp
2019-Feb-23 21:57N 55°58' W 004°50'1 1.9
2019-Feb-23 21:23N 55°58' W 004°52'2 2.5
2019-Feb-23 20:40N 55°58' W 004°49'210.7
2019-Feb-23 20:30N 55°57' W 004°52'1 1.0
2019-Feb-23 19:59N 55°58' W 004°51'1 2.0
2019-Feb-23 19:28N 55°57' W 004°53'2 0.8
2019-Feb-23 16:41N 55°58' W 004°49'211.3
2019-Feb-23 16:30N 55°57' W 004°53'2 0.6
2019-Feb-23 12:40N 55°58' W 004°49'211.0
2019-Feb-23 12:29N 55°57' W 004°53'1 2.4
2019-Feb-23 11:57N 55°58' W 004°51'1 3.0
2019-Feb-23 11:29N 55°57' W 004°53'2 1.8
2019-Feb-23 10:38N 55°58' W 004°50'110.8
2019-Feb-23 10:30N 55°57' W 004°52'1 1.2
2019-Feb-23 10:00N 55°58' W 004°52'1 1.4
2019-Feb-23 09:29N 55°57' W 004°53'1 0.1
2019-Feb-22 21:51N 55°57' W 004°52'2 4.8
2019-Feb-22 21:30N 55°57' W 004°55'3 1.9
2019-Feb-22 20:08N 55°58' W 004°50'110.4
2019-Feb-22 20:00N 55°57' W 004°52'1 1.2
2019-Feb-22 19:06N 55°58' W 004°51'110.1
2019-Feb-22 18:59N 55°57' W 004°53'2 1.8
2019-Feb-22 18:08N 55°58' W 004°50'110.0
2019-Feb-22 18:01N 55°57' W 004°52'1 1.4
2019-Feb-22 17:08N 55°58' W 004°50'1 9.9
2019-Feb-22 17:00N 55°57' W 004°53'1 1.5
2019-Feb-22 16:08N 55°58' W 004°50'110.3
2019-Feb-22 16:00N 55°57' W 004°53'1 2.3
2019-Feb-22 15:27N 55°58' W 004°51'1 3.0
2019-Feb-22 15:00N 55°57' W 004°53'2 1.9
2019-Feb-22 14:09N 55°58' W 004°50'210.6
2019-Feb-22 14:00N 55°57' W 004°53'2 2.2
2019-Feb-22 13:09N 55°58' W 004°49'210.9
2019-Feb-22 12:59N 55°57' W 004°53'1 0.8
2019-Feb-22 12:05N 55°58' W 004°51'110.6
2019-Feb-22 12:00N 55°57' W 004°53'2 2.2
2019-Feb-22 11:09N 55°58' W 004°50'210.7
2019-Feb-22 10:58N 55°57' W 004°53'2 3.1
2019-Feb-22 10:26N 55°58' W 004°50'1 3.4
2019-Feb-22 09:59N 55°57' W 004°53'1 1.7
2019-Feb-22 09:30N 55°58' W 004°51'1 1.5
2019-Feb-22 09:00N 55°57' W 004°53'1 1.3
2019-Feb-22 08:07N 55°58' W 004°51'110.1
2019-Feb-22 07:59N 55°57' W 004°53'1 1.6
2019-Feb-22 07:05N 55°58' W 004°50'110.2
2019-Feb-22 07:00N 55°57' W 004°52'0 0.0
2019-Feb-21 23:22N 55°58' W 004°52'0 1.0
2019-Feb-21 22:53N 55°58' W 004°53'1 2.2
2019-Feb-21 22:25N 55°58' W 004°51'2 4.2
2019-Feb-21 21:57N 55°57' W 004°54'3 3.1
2019-Feb-21 21:08N 55°58' W 004°50'211.4
2019-Feb-21 20:59N 55°57' W 004°53'1 1.5
2019-Feb-21 20:06N 55°58' W 004°50'111.0
2019-Feb-21 20:00N 55°57' W 004°52'1 2.3
2019-Feb-21 19:26N 55°58' W 004°50'1 3.2
2019-Feb-21 19:00N 55°57' W 004°53'1 1.5
2019-Feb-21 18:08N 55°58' W 004°50'2 9.9
2019-Feb-21 17:56N 55°57' W 004°54'3 3.4
2019-Feb-21 17:12N 55°58' W 004°49'210.0
2019-Feb-21 16:59N 55°57' W 004°53'1 2.7
2019-Feb-21 16:26N 55°58' W 004°51'1 3.0
2019-Feb-21 15:58N 55°57' W 004°53'1 2.2
2019-Feb-21 15:28N 55°58' W 004°51'2 3.0
2019-Feb-21 14:57N 55°57' W 004°54'2 2.2
2019-Feb-21 14:06N 55°58' W 004°51'110.7
2019-Feb-21 13:59N 55°57' W 004°53'1 2.5
2019-Feb-21 13:27N 55°58' W 004°50'1 2.8
2019-Feb-21 12:59N 55°57' W 004°53'1 2.1
2019-Feb-21 12:29N 55°58' W 004°51'1 2.2
2019-Feb-21 12:00N 55°57' W 004°53'1 1.3
2019-Feb-21 11:06N 55°58' W 004°51'110.7
2019-Feb-21 11:00N 55°57' W 004°52'1 0.8
2019-Feb-21 10:04N 55°58' W 004°51'110.8
2019-Feb-21 09:58N 55°57' W 004°53'1 1.3
2019-Feb-21 09:05N 55°58' W 004°51'110.7
2019-Feb-21 09:00N 55°57' W 004°52'2 2.5
2019-Feb-21 08:11N 55°58' W 004°49'210.3
2019-Feb-21 08:00N 55°57' W 004°52'1 2.2
2019-Feb-21 07:26N 55°58' W 004°50'1 2.1
2019-Feb-21 06:59N 55°57' W 004°52'0 0.0
2019-Feb-20 23:19N 55°57' W 004°53'1 0.8
2019-Feb-20 22:23N 55°57' W 004°51'2 4.5
2019-Feb-20 22:00N 55°57' W 004°54'3 3.7
2019-Feb-20 21:11N 55°58' W 004°49'210.9
2019-Feb-20 20:59N 55°57' W 004°53'2 2.1
2019-Feb-20 20:08N 55°58' W 004°50'110.8
2019-Feb-20 20:00N 55°57' W 004°52'1 1.0
2019-Feb-20 19:06N 55°58' W 004°51'110.4
2019-Feb-20 19:00N 55°57' W 004°52'2 2.1
2019-Feb-20 18:10N 55°58' W 004°49'210.4
2019-Feb-20 17:58N 55°57' W 004°53'1 1.8
2019-Feb-20 17:07N 55°58' W 004°51'110.1
2019-Feb-20 16:59N 55°57' W 004°53'1 1.7
2019-Feb-20 16:07N 55°58' W 004°50'210.5
2019-Feb-20 15:57N 55°57' W 004°53'2 2.1
2019-Feb-20 15:07N 55°58' W 004°51'110.4
2019-Feb-20 15:00N 55°57' W 004°53'1 0.8
2019-Feb-20 14:09N 55°58' W 004°51'211.3
2019-Feb-20 14:00N 55°57' W 004°54'2 3.5
2019-Feb-20 13:21N 55°58' W 004°50'1 1.1
2019-Feb-20 12:17N 55°57' W 004°52'2 6.1
2019-Feb-20 12:00N 55°57' W 004°55'2 1.7
2019-Feb-20 11:01N 55°57' W 004°52'011.4
2019-Feb-20 10:59N 55°57' W 004°53'1 1.8
2019-Feb-20 10:09N 55°58' W 004°51'210.8
2019-Feb-20 09:57N 55°57' W 004°54'3 4.1
2019-Feb-20 09:14N 55°58' W 004°49'311.0
2019-Feb-20 08:59N 55°57' W 004°54'2 4.3
2019-Feb-20 08:28N 55°58' W 004°50'2 4.1
2019-Feb-20 08:00N 55°57' W 004°53'1 1.0
2019-Feb-20 07:03N 55°58' W 004°52'110.7
2019-Feb-20 07:00N 55°57' W 004°53'0 0.0
2019-Feb-19 23:16N 55°57' W 004°53'0 0.3
2019-Feb-19 22:18N 55°57' W 004°53'0 0.6
2019-Feb-19 21:52N 55°58' W 004°52'1 1.2
2019-Feb-19 21:05N 55°58' W 004°51'111.0
2019-Feb-19 21:00N 55°57' W 004°52'0 0.0
2019-Feb-19 20:00N 55°57' W 004°52'2 2.2
2019-Feb-19 19:10N 55°58' W 004°49'211.0
2019-Feb-19 18:58N 55°57' W 004°53'2 2.4
2019-Feb-19 18:09N 55°58' W 004°50'210.9
2019-Feb-19 18:00N 55°57' W 004°52'1 0.8
2019-Feb-19 17:05N 55°58' W 004°51'110.6
2019-Feb-19 16:59N 55°57' W 004°53'1 1.9
2019-Feb-19 16:30N 55°58' W 004°52'1 1.1
2019-Feb-19 16:00N 55°57' W 004°52'2 1.8
2019-Feb-19 15:09N 55°58' W 004°50'210.4
2019-Feb-19 15:00N 55°57' W 004°52'2 2.0
2019-Feb-19 14:09N 55°58' W 004°49'211.3
2019-Feb-19 14:00N 55°57' W 004°53'1 1.4
2019-Feb-19 13:06N 55°58' W 004°50'111.5
2019-Feb-19 13:00N 55°57' W 004°52'0 0.2
2019-Feb-19 12:00N 55°57' W 004°52'1 1.6
2019-Feb-19 11:08N 55°58' W 004°49'111.1
2019-Feb-19 11:00N 55°57' W 004°52'1 1.7
2019-Feb-19 10:09N 55°58' W 004°49'211.3
2019-Feb-19 10:00N 55°57' W 004°52'2 2.0
2019-Feb-19 09:09N 55°58' W 004°49'211.2
2019-Feb-19 08:57N 55°57' W 004°53'2 3.3
2019-Feb-19 08:26N 55°58' W 004°50'1 3.0
2019-Feb-19 07:59N 55°57' W 004°52'2 2.2
2019-Feb-19 07:05N 55°58' W 004°49'211.3
2019-Feb-19 06:56N 55°57' W 004°52'0 0.1
2019-Feb-18 23:24N 55°57' W 004°51'2 3.7
2019-Feb-18 22:57N 55°57' W 004°54'2 4.0
2019-Feb-18 22:26N 55°58' W 004°50'3 5.8
2019-Feb-18 22:00N 55°57' W 004°55'2 2.4
2019-Feb-18 21:05N 55°58' W 004°51'110.7
2019-Feb-18 20:59N 55°57' W 004°52'0 0.5
2019-Feb-18 20:03N 55°57' W 004°52'110.1
2019-Feb-18 19:59N 55°57' W 004°53'1 1.0
2019-Feb-18 19:04N 55°57' W 004°51'111.0
2019-Feb-18 19:00N 55°57' W 004°52'1 1.5
2019-Feb-18 18:08N 55°58' W 004°50'110.5
2019-Feb-18 18:00N 55°57' W 004°52'1 1.0
2019-Feb-18 17:05N 55°58' W 004°51'110.1
2019-Feb-18 16:58N 55°57' W 004°53'1 2.8
2019-Feb-18 16:28N 55°58' W 004°51'1 2.5
2019-Feb-18 16:00N 55°57' W 004°53'2 0.2
2019-Feb-18 09:07N 55°58' W 004°50'210.4
2019-Feb-18 08:57N 55°57' W 004°53'2 2.3
2019-Feb-18 08:08N 55°58' W 004°50'211.2
2019-Feb-18 07:59N 55°57' W 004°53'2 1.7
2019-Feb-18 07:02N 55°58' W 004°50'011.5
2019-Feb-18 07:00N 55°58' W 004°51'0 0.4
2019-Feb-18 06:28N 55°58' W 004°51'1 0.0
2019-Feb-17 09:08N 55°58' W 004°49'210.9
2019-Feb-17 08:59N 55°58' W 004°52'1 0.1
2019-Feb-16 21:59N 55°58' W 004°50'0 0.2
2019-Feb-16 20:37N 55°58' W 004°50'110.4
2019-Feb-16 20:29N 55°57' W 004°53'2 1.9
2019-Feb-16 19:38N 55°58' W 004°50'110.7
2019-Feb-16 19:30N 55°57' W 004°52'1 0.2
2019-Feb-16 16:33N 55°57' W 004°52'010.8
2019-Feb-16 16:31N 55°57' W 004°52'2 1.2
2019-Feb-16 15:11N 55°58' W 004°49'210.3
2019-Feb-16 14:57N 55°57' W 004°54'1 1.7
2019-Feb-16 14:05N 55°58' W 004°51'111.2
2019-Feb-16 14:00N 55°57' W 004°53'2 1.3
2019-Feb-16 12:38N 55°58' W 004°50'211.1
2019-Feb-16 12:29N 55°57' W 004°52'1 0.6
2019-Feb-16 11:32N 55°58' W 004°52'111.2
2019-Feb-16 11:28N 55°57' W 004°53'1 1.8
2019-Feb-16 10:59N 55°58' W 004°52'1 1.3
2019-Feb-16 10:29N 55°58' W 004°53'2 2.2
2019-Feb-16 09:39N 55°58' W 004°49'210.9
2019-Feb-16 09:27N 55°57' W 004°53'1 2.9
2019-Feb-16 09:00N 55°58' W 004°51'0 0.0
2019-Feb-15 21:55N 55°58' W 004°51'1 0.6
2019-Feb-15 20:40N 55°58' W 004°50'211.1
2019-Feb-15 20:29N 55°57' W 004°53'2 2.4
2019-Feb-15 19:44N 55°58' W 004°50'311.1
2019-Feb-15 19:29N 55°57' W 004°55'2 0.7
2019-Feb-15 16:34N 55°57' W 004°51'111.1
2019-Feb-15 16:29N 55°57' W 004°53'2 2.7
2019-Feb-15 15:55N 55°58' W 004°50'0 0.2
2019-Feb-15 15:07N 55°58' W 004°50'111.1
2019-Feb-15 15:00N 55°57' W 004°52'1 1.9
2019-Feb-15 14:26N 55°58' W 004°50'2 4.4
2019-Feb-15 13:55N 55°57' W 004°54'2 1.4
2019-Feb-15 12:36N 55°57' W 004°51'110.4
2019-Feb-15 12:30N 55°57' W 004°52'1 1.3
2019-Feb-15 12:00N 55°58' W 004°52'1 1.2
2019-Feb-15 11:29N 55°57' W 004°52'1 2.3
2019-Feb-15 10:56N 55°58' W 004°50'1 3.1
2019-Feb-15 10:29N 55°57' W 004°53'2 1.7
2019-Feb-15 09:35N 55°58' W 004°50'112.1
2019-Feb-15 09:29N 55°57' W 004°52'1 0.1
2019-Feb-14 23:24N 55°58' W 004°51'2 4.1
2019-Feb-14 22:58N 55°57' W 004°54'2 1.5
2019-Feb-14 21:54N 55°57' W 004°51'1 1.2
2019-Feb-14 21:22N 55°58' W 004°52'1 0.6
2019-Feb-14 20:33N 55°57' W 004°52'010.1
2019-Feb-14 20:30N 55°57' W 004°52'2 3.2
2019-Feb-14 19:54N 55°58' W 004°49'2 4.7
2019-Feb-14 19:30N 55°57' W 004°52'1 0.3
2019-Feb-14 16:34N 55°57' W 004°51'110.3
2019-Feb-14 16:28N 55°57' W 004°53'1 0.9
2019-Feb-14 15:04N 55°57' W 004°51'110.7
2019-Feb-14 15:00N 55°57' W 004°52'1 1.7
2019-Feb-14 14:09N 55°58' W 004°50'210.9
2019-Feb-14 13:58N 55°57' W 004°53'1 2.1
2019-Feb-14 13:28N 55°58' W 004°51'0 0.5
2019-Feb-14 12:36N 55°58' W 004°50'111.4
2019-Feb-14 12:28N 55°57' W 004°53'2 2.4
2019-Feb-14 11:38N 55°58' W 004°49'211.3
2019-Feb-14 11:27N 55°57' W 004°53'2 3.1
2019-Feb-14 10:56N 55°58' W 004°50'1 2.8
2019-Feb-14 10:30N 55°57' W 004°52'1 1.1
2019-Feb-14 09:35N 55°58' W 004°51'110.9
2019-Feb-14 09:30N 55°57' W 004°52'  

Dump ship's entire track history